createdAt,value
2018-06-20T00:00:07.984Z,18.39
2018-06-20T00:02:36.923Z,18.34
2018-06-20T00:05:05.903Z,18.33
2018-06-20T00:07:34.959Z,18.29
2018-06-20T00:10:03.905Z,18.29
2018-06-20T00:12:32.847Z,18.28
2018-06-20T00:15:01.947Z,18.27
2018-06-20T00:17:30.924Z,18.27
2018-06-20T00:19:59.970Z,18.23
2018-06-20T00:22:28.923Z,18.21
2018-06-20T00:24:57.952Z,18.15
2018-06-20T00:27:26.979Z,18.13
2018-06-20T00:29:55.972Z,18.08
2018-06-20T00:32:24.924Z,18.02
2018-06-20T00:34:53.860Z,17.96
2018-06-20T00:37:22.828Z,17.91
2018-06-20T00:39:51.828Z,17.82
2018-06-20T00:42:20.869Z,17.77
2018-06-20T00:44:49.894Z,17.72
2018-06-20T00:47:18.944Z,17.69
2018-06-20T00:49:47.997Z,17.63
2018-06-20T00:52:17.021Z,17.57
2018-06-20T00:54:46.085Z,17.53
2018-06-20T00:57:15.063Z,17.50
2018-06-20T00:59:44.084Z,17.48
2018-06-20T01:02:13.049Z,17.45
2018-06-20T01:04:41.984Z,17.44
2018-06-20T01:07:10.932Z,17.43
2018-06-20T01:09:39.876Z,17.40
2018-06-20T01:12:08.888Z,17.38
2018-06-20T01:14:37.900Z,17.39
2018-06-20T01:17:07.282Z,17.40
2018-06-20T01:19:36.309Z,17.39
2018-06-20T01:22:05.325Z,17.39
2018-06-20T01:24:34.324Z,17.32
2018-06-20T01:27:04.208Z,17.39
2018-06-20T01:29:33.229Z,17.34
2018-06-20T01:32:02.308Z,17.33
2018-06-20T01:34:31.288Z,17.35
2018-06-20T01:37:00.348Z,17.33
2018-06-20T01:39:29.322Z,17.34
2018-06-20T01:41:58.338Z,17.37
2018-06-20T01:44:27.293Z,17.39
2018-06-20T01:46:56.464Z,17.40
2018-06-20T01:49:25.456Z,17.39
2018-06-20T01:51:54.465Z,17.35
2018-06-20T01:54:23.506Z,17.33
2018-06-20T01:56:52.585Z,17.31
2018-06-20T01:59:21.612Z,17.28
2018-06-20T02:01:50.556Z,17.24
2018-06-20T02:04:19.627Z,17.26
2018-06-20T02:06:48.658Z,17.25
2018-06-20T02:09:17.664Z,17.26
2018-06-20T02:11:46.662Z,17.24
2018-06-20T02:14:15.700Z,17.20
2018-06-20T02:16:44.697Z,17.18
2018-06-20T02:19:13.653Z,17.17
2018-06-20T02:21:42.694Z,17.11
2018-06-20T02:24:11.924Z,17.07
2018-06-20T02:26:40.882Z,17.02
2018-06-20T02:29:09.895Z,16.99
2018-06-20T02:31:38.972Z,16.96
2018-06-20T02:34:07.968Z,16.92
2018-06-20T02:36:36.984Z,16.92
2018-06-20T02:39:08.605Z,16.90
2018-06-20T02:41:38.366Z,16.88
2018-06-20T02:44:07.452Z,16.92
2018-06-20T02:46:36.481Z,16.96
2018-06-20T02:49:05.432Z,16.97
2018-06-20T02:51:34.412Z,17.01
2018-06-20T02:54:03.477Z,17.01
2018-06-20T02:56:32.459Z,17.04
2018-06-20T02:59:01.476Z,17.09
2018-06-20T03:01:30.489Z,17.14
2018-06-20T03:03:59.436Z,17.24
2018-06-20T03:06:28.447Z,17.33
2018-06-20T03:09:03.061Z,17.41
2018-06-20T03:11:32.069Z,17.55
2018-06-20T03:14:01.131Z,17.66
2018-06-20T03:16:30.142Z,17.70
2018-06-20T03:18:59.089Z,17.78
2018-06-20T03:21:28.164Z,17.84
2018-06-20T03:23:57.122Z,17.93
2018-06-20T03:26:26.168Z,17.98
2018-06-20T03:28:55.120Z,18.07
2018-06-20T03:31:24.089Z,18.13
2018-06-20T03:33:53.048Z,18.25
2018-06-20T03:36:22.125Z,18.41
2018-06-20T03:38:51.113Z,18.51
2018-06-20T03:41:20.068Z,18.56
2018-06-20T03:43:49.065Z,18.64
2018-06-20T03:46:18.076Z,18.78
2018-06-20T03:48:47.154Z,19.48
2018-06-20T03:51:16.186Z,20.45
2018-06-20T03:53:45.232Z,21.03
2018-06-20T03:56:14.276Z,21.79
2018-06-20T03:58:43.348Z,22.51
2018-06-20T04:01:12.327Z,23.32
2018-06-20T04:03:41.356Z,23.99
2018-06-20T04:06:10.442Z,24.57
2018-06-20T04:08:39.512Z,25.17
2018-06-20T04:11:08.548Z,26.25
2018-06-20T04:13:37.592Z,27.25
2018-06-20T04:16:06.649Z,28.12
2018-06-20T04:18:44.028Z,28.65
2018-06-20T04:21:14.329Z,29.51
2018-06-20T04:23:43.399Z,30.41
2018-06-20T04:26:13.230Z,30.97
2018-06-20T04:28:42.296Z,31.54
2018-06-20T04:31:11.338Z,32.28
2018-06-20T04:33:40.401Z,32.69
2018-06-20T04:36:09.487Z,32.71
2018-06-20T04:38:38.480Z,33.22
2018-06-20T04:41:06.964Z,33.54
2018-06-20T04:43:35.911Z,34.14
2018-06-20T04:46:04.904Z,34.71
2018-06-20T04:48:33.900Z,35.34
2018-06-20T04:51:03.156Z,35.52
2018-06-20T04:53:32.185Z,36.20
2018-06-20T04:56:01.132Z,36.49
2018-06-20T04:58:30.145Z,36.84
2018-06-20T05:00:59.100Z,36.74
2018-06-20T05:03:28.066Z,36.43
2018-06-20T05:05:57.026Z,36.85
2018-06-20T05:08:26.041Z,37.12
2018-06-20T05:10:55.077Z,37.21
2018-06-20T05:13:24.113Z,38.14
2018-06-20T05:15:53.107Z,38.56
2018-06-20T05:18:22.132Z,38.89
2018-06-20T05:20:51.170Z,38.82
2018-06-20T05:23:20.206Z,38.99
2018-06-20T05:25:49.221Z,39.40
2018-06-20T05:28:18.292Z,39.29
2018-06-20T05:30:50.108Z,39.29
2018-06-20T05:33:19.959Z,40.08
2018-06-20T05:35:49.060Z,40.32
2018-06-20T05:38:18.468Z,40.87
2018-06-20T05:40:48.214Z,40.82
2018-06-20T05:43:17.192Z,40.19
2018-06-20T05:45:46.150Z,39.54
2018-06-20T05:48:15.227Z,40.22
2018-06-20T05:50:44.248Z,40.66
2018-06-20T05:53:13.208Z,40.24
2018-06-20T05:55:42.335Z,39.98
2018-06-20T05:58:11.385Z,39.95
2018-06-20T06:00:40.347Z,39.65
2018-06-20T06:03:09.284Z,39.45
2018-06-20T06:05:38.301Z,38.63
2018-06-20T06:08:11.200Z,38.05
2018-06-20T06:10:40.233Z,37.92
2018-06-20T06:13:09.200Z,38.33
2018-06-20T06:15:38.221Z,38.85
2018-06-20T06:18:07.314Z,39.22
2018-06-20T06:20:36.360Z,39.41
2018-06-20T06:23:05.408Z,39.15
2018-06-20T06:25:34.392Z,38.42
2018-06-20T06:28:03.336Z,38.89
2018-06-20T06:30:32.328Z,39.63
2018-06-20T06:33:01.337Z,39.91
2018-06-20T06:35:30.368Z,39.72
2018-06-20T06:37:59.377Z,38.66
2018-06-20T06:40:28.403Z,37.87
2018-06-20T06:42:57.424Z,38.61
2018-06-20T06:45:26.537Z,38.89
2018-06-20T06:47:55.500Z,38.26
2018-06-20T06:50:24.561Z,39.00
2018-06-20T06:52:53.516Z,39.04
2018-06-20T06:55:22.558Z,38.73
2018-06-20T06:57:51.581Z,39.12
2018-06-20T07:00:20.701Z,39.29
2018-06-20T07:02:49.726Z,38.76
2018-06-20T07:05:18.825Z,37.53
2018-06-20T07:07:47.847Z,37.49
2018-06-20T07:10:16.890Z,37.66
2018-06-20T07:12:45.856Z,38.11
2018-06-20T07:15:14.871Z,38.38
2018-06-20T07:17:43.848Z,38.28
2018-06-20T07:20:12.792Z,38.39
2018-06-20T07:22:41.831Z,38.03
2018-06-20T07:25:10.800Z,37.74
2018-06-20T07:27:39.832Z,38.17
2018-06-20T07:30:08.917Z,37.87
2018-06-20T07:32:37.921Z,37.50
2018-06-20T07:35:06.894Z,37.26
2018-06-20T07:37:35.892Z,37.56
2018-06-20T07:40:04.893Z,37.88
2018-06-20T07:42:33.917Z,38.09
2018-06-20T07:45:03.144Z,37.78
2018-06-20T07:47:32.173Z,37.20
2018-06-20T07:50:01.150Z,35.97
2018-06-20T07:52:30.121Z,35.61
2018-06-20T07:54:59.133Z,34.97
2018-06-20T07:57:28.142Z,34.30
2018-06-20T08:00:02.285Z,34.04
2018-06-20T08:02:47.408Z,33.69
2018-06-20T08:05:21.517Z,33.11
2018-06-20T08:07:55.470Z,32.77
2018-06-20T08:10:29.491Z,32.66
2018-06-20T08:13:03.669Z,32.78
2018-06-20T08:15:37.708Z,32.93
2018-06-20T08:18:11.689Z,32.73
2018-06-20T08:20:40.748Z,32.39
2018-06-20T08:23:09.705Z,32.29
2018-06-20T08:25:38.812Z,32.22
2018-06-20T08:28:07.927Z,32.46
2018-06-20T08:30:36.980Z,32.62
2018-06-20T08:33:06.060Z,32.76
2018-06-20T08:35:35.336Z,32.87
2018-06-20T08:38:04.438Z,32.91
2018-06-20T08:40:33.411Z,32.79
2018-06-20T08:43:02.481Z,32.93
2018-06-20T08:45:31.564Z,32.92
2018-06-20T08:48:00.545Z,33.20
2018-06-20T08:50:29.501Z,33.15
2018-06-20T08:52:58.600Z,33.23
2018-06-20T08:55:27.945Z,33.26
2018-06-20T08:57:56.997Z,33.03
2018-06-20T09:00:31.168Z,33.07
2018-06-20T09:03:00.136Z,33.02
2018-06-20T09:05:34.197Z,32.64
2018-06-20T09:08:08.389Z,32.58
2018-06-20T09:10:42.512Z,32.62
2018-06-20T09:13:16.436Z,32.66
2018-06-20T09:15:50.350Z,32.46
2018-06-20T09:18:24.449Z,32.45
2018-06-20T09:20:53.441Z,32.69
2018-06-20T09:23:22.389Z,32.72
2018-06-20T09:25:51.485Z,32.94
2018-06-20T09:28:20.441Z,33.29
2018-06-20T09:30:49.449Z,33.35
2018-06-20T09:33:18.413Z,33.23
2018-06-20T09:35:47.444Z,33.30
2018-06-20T09:38:16.544Z,33.27
2018-06-20T09:40:45.577Z,33.28
2018-06-20T09:43:14.594Z,33.39
2018-06-20T09:45:43.616Z,33.55
2018-06-20T09:48:12.683Z,33.90
2018-06-20T09:50:46.592Z,34.11
2018-06-20T09:53:15.561Z,34.63
2018-06-20T09:55:44.552Z,34.94
2018-06-20T09:58:13.620Z,35.05
2018-06-20T10:00:47.746Z,35.48
2018-06-20T10:04:19.635Z,35.98
2018-06-20T10:06:53.864Z,36.73
2018-06-20T10:09:27.721Z,36.94
2018-06-20T10:12:01.700Z,36.80
2018-06-20T10:14:30.657Z,36.88
2018-06-20T10:16:59.681Z,36.95
2018-06-20T10:19:28.647Z,37.44
2018-06-20T10:21:57.708Z,37.80
2018-06-20T10:24:26.877Z,38.46
2018-06-20T10:26:55.861Z,37.94
2018-06-20T10:29:24.800Z,37.68
2018-06-20T10:31:53.771Z,37.64
2018-06-20T10:34:22.840Z,37.72
2018-06-20T10:36:51.899Z,38.12
2018-06-20T10:39:20.852Z,38.61
2018-06-20T10:41:49.807Z,38.68
2018-06-20T10:44:18.865Z,38.71
2018-06-20T10:46:52.968Z,38.69
2018-06-20T10:49:22.060Z,38.52
2018-06-20T10:51:51.097Z,38.79
2018-06-20T10:54:20.060Z,39.10
2018-06-20T10:56:54.168Z,39.03
2018-06-20T10:59:28.325Z,38.58
2018-06-20T11:03:01.060Z,38.86
2018-06-20T11:05:35.008Z,38.86
2018-06-20T11:09:12.664Z,39.77
2018-06-20T11:12:48.364Z,38.97
2018-06-20T11:15:17.428Z,38.83
2018-06-20T11:17:46.368Z,39.01
2018-06-20T11:20:17.867Z,38.96
2018-06-20T11:22:48.132Z,39.40
2018-06-20T11:25:17.132Z,40.04
2018-06-20T11:27:46.075Z,40.37
2018-06-20T11:30:15.121Z,40.05
2018-06-20T11:32:44.133Z,39.83
2018-06-20T11:35:13.516Z,40.66
2018-06-20T11:37:42.588Z,40.24
2018-06-20T11:40:11.692Z,39.99
2018-06-20T11:42:40.684Z,40.90
2018-06-20T11:45:09.713Z,40.98
2018-06-20T11:47:41.600Z,40.87
2018-06-20T11:50:11.872Z,40.21
2018-06-20T11:52:45.988Z,39.86
2018-06-20T11:55:20.122Z,39.78
2018-06-20T11:57:49.080Z,39.66
2018-06-20T12:00:23.104Z,39.91
2018-06-20T12:02:57.105Z,39.79
2018-06-20T12:05:31.150Z,40.31
2018-06-20T12:08:05.433Z,40.34
2018-06-20T12:10:39.722Z,40.51
2018-06-20T12:13:13.728Z,40.52
2018-06-20T12:15:47.688Z,40.96
2018-06-20T12:18:21.847Z,41.44
2018-06-20T12:20:56.778Z,41.47
2018-06-20T12:23:30.759Z,41.61
2018-06-20T12:26:04.883Z,41.49
2018-06-20T12:28:38.907Z,41.21
2018-06-20T12:31:13.074Z,41.67
2018-06-20T12:33:47.071Z,41.28
2018-06-20T12:36:20.976Z,40.95
2018-06-20T12:38:54.928Z,41.91
2018-06-20T12:41:28.944Z,42.81
2018-06-20T12:44:03.053Z,42.04
2018-06-20T12:47:38.009Z,41.89
2018-06-20T12:50:28.525Z,41.93
2018-06-20T12:52:58.236Z,42.20
2018-06-20T12:55:27.732Z,42.29
2018-06-20T12:57:57.260Z,42.45
2018-06-20T13:00:26.256Z,42.85
2018-06-20T13:02:55.359Z,42.32
2018-06-20T13:05:24.396Z,41.04
2018-06-20T13:07:53.349Z,39.32
2018-06-20T13:10:22.433Z,38.53
2018-06-20T13:12:51.391Z,37.03
2018-06-20T13:15:20.428Z,36.04
2018-06-20T13:17:49.526Z,35.61
2018-06-20T13:20:18.627Z,36.26
2018-06-20T13:22:47.502Z,36.82
2018-06-20T13:25:16.881Z,37.50
2018-06-20T13:27:46.874Z,38.53
2018-06-20T13:30:16.469Z,39.62
2018-06-20T13:32:50.564Z,40.21
2018-06-20T13:35:24.516Z,40.41
2018-06-20T13:37:58.440Z,41.26
2018-06-20T13:40:32.494Z,41.06
2018-06-20T13:44:08.085Z,40.93
2018-06-20T13:46:42.082Z,41.77
2018-06-20T13:49:11.132Z,42.41
2018-06-20T13:51:40.169Z,42.35
2018-06-20T13:54:09.197Z,42.19
2018-06-20T13:56:38.227Z,41.63
2018-06-20T13:59:07.172Z,40.53
2018-06-20T14:01:36.137Z,39.23
2018-06-20T14:04:05.131Z,37.97
2018-06-20T14:06:34.332Z,37.29
2018-06-20T14:09:03.444Z,36.54
2018-06-20T14:11:32.480Z,35.75
2018-06-20T14:14:01.478Z,35.16
2018-06-20T14:16:30.520Z,34.92
2018-06-20T14:18:59.596Z,34.60
2018-06-20T14:21:33.785Z,34.31
2018-06-20T14:24:02.744Z,34.06
2018-06-20T14:26:31.797Z,33.79
2018-06-20T14:29:00.761Z,33.63
2018-06-20T14:31:34.749Z,33.45
2018-06-20T14:34:08.901Z,33.34
2018-06-20T14:36:42.885Z,33.15
2018-06-20T14:39:17.029Z,32.93
2018-06-20T14:41:51.060Z,32.73
2018-06-20T14:44:20.004Z,32.62
2018-06-20T14:46:49.099Z,32.55
2018-06-20T14:49:18.134Z,32.44
2018-06-20T14:51:47.188Z,32.38
2018-06-20T14:54:16.213Z,32.15
2018-06-20T14:56:45.225Z,32.22
2018-06-20T14:59:14.273Z,32.23
2018-06-20T15:01:43.340Z,32.16
2018-06-20T15:04:12.384Z,32.15
2018-06-20T15:06:41.399Z,32.38
2018-06-20T15:09:10.369Z,32.42
2018-06-20T15:11:39.875Z,32.61
2018-06-20T15:14:08.859Z,32.75
2018-06-20T15:16:42.949Z,32.68
2018-06-20T15:19:11.928Z,32.65
2018-06-20T15:21:40.881Z,32.66
2018-06-20T15:24:09.885Z,32.72
2018-06-20T15:26:43.945Z,32.73
2018-06-20T15:30:20.602Z,32.68
2018-06-20T15:32:54.536Z,32.73
2018-06-20T15:35:28.604Z,32.72
2018-06-20T15:38:02.724Z,32.78
2018-06-20T15:40:31.734Z,32.78
2018-06-20T15:43:00.703Z,32.79
2018-06-20T15:45:29.747Z,32.70
2018-06-20T15:47:58.689Z,32.55
2018-06-20T15:50:27.713Z,32.30
2018-06-20T15:52:56.702Z,32.16
2018-06-20T15:55:25.728Z,32.00
2018-06-20T15:57:54.741Z,31.85
2018-06-20T16:00:23.796Z,31.67
2018-06-20T16:02:52.868Z,31.50
2018-06-20T16:05:21.884Z,31.40
2018-06-20T16:07:51.308Z,31.23
2018-06-20T16:10:20.891Z,31.15
2018-06-20T16:12:49.857Z,30.96
2018-06-20T16:15:19.172Z,30.86
2018-06-20T16:17:48.314Z,30.76
2018-06-20T16:20:22.281Z,30.67
2018-06-20T16:22:56.207Z,30.58
2018-06-20T16:25:30.228Z,30.46
2018-06-20T16:28:04.286Z,30.39
2018-06-20T16:30:39.521Z,30.31
2018-06-20T16:33:08.603Z,30.23
2018-06-20T16:35:38.152Z,30.17
2018-06-20T16:38:07.414Z,30.16
2018-06-20T16:40:36.560Z,30.08
2018-06-20T16:43:05.497Z,30.01
2018-06-20T16:45:34.481Z,29.95
2018-06-20T16:48:03.460Z,29.93
2018-06-20T16:50:32.538Z,29.93
2018-06-20T16:53:01.560Z,29.96
2018-06-20T16:55:30.554Z,30.02
2018-06-20T16:57:59.525Z,30.04
2018-06-20T17:00:28.511Z,30.06
2018-06-20T17:02:57.453Z,30.06
2018-06-20T17:05:26.540Z,30.02
2018-06-20T17:07:55.616Z,29.94
2018-06-20T17:10:24.665Z,29.75
2018-06-20T17:12:58.658Z,29.67
2018-06-20T17:15:32.641Z,29.51
2018-06-20T17:18:07.835Z,29.39
2018-06-20T17:20:41.952Z,29.30
2018-06-20T17:23:16.768Z,29.17
2018-06-20T17:25:45.831Z,29.04
2018-06-20T17:28:14.848Z,28.93
2018-06-20T17:30:43.799Z,28.87
2018-06-20T17:33:12.724Z,28.80
2018-06-20T17:35:41.776Z,28.74
2018-06-20T17:38:10.761Z,28.70
2018-06-20T17:40:39.787Z,28.65
2018-06-20T17:43:08.737Z,28.56
2018-06-20T17:45:37.702Z,28.52
2018-06-20T17:48:06.774Z,28.40
2018-06-20T17:50:36.963Z,28.33
2018-06-20T17:53:05.937Z,28.22
2018-06-20T17:55:34.992Z,28.09
2018-06-20T17:58:04.022Z,27.99
2018-06-20T18:00:34.224Z,27.88
2018-06-20T18:03:03.252Z,27.81
2018-06-20T18:05:37.528Z,27.71
2018-06-20T18:08:11.649Z,27.61
2018-06-20T18:11:46.301Z,27.50
2018-06-20T18:14:21.939Z,27.33
2018-06-20T18:17:00.352Z,27.25
2018-06-20T18:19:33.724Z,27.16
2018-06-20T18:22:03.045Z,27.08
2018-06-20T18:24:32.004Z,27.00
2018-06-20T18:27:01.160Z,26.88
2018-06-20T18:29:30.234Z,26.92
2018-06-20T18:31:59.250Z,26.88
2018-06-20T18:34:28.228Z,26.89
2018-06-20T18:36:57.221Z,26.90
2018-06-20T18:39:26.223Z,26.88
2018-06-20T18:41:55.257Z,26.87
2018-06-20T18:44:24.267Z,26.77
2018-06-20T18:46:53.285Z,26.70
2018-06-20T18:49:22.297Z,26.61
2018-06-20T18:51:51.350Z,26.56
2018-06-20T18:54:20.336Z,26.51
2018-06-20T18:56:49.344Z,26.43
2018-06-20T18:59:23.278Z,26.40
2018-06-20T19:01:57.150Z,26.34
2018-06-20T19:04:31.072Z,26.25
2018-06-20T19:07:05.152Z,26.19
2018-06-20T19:09:34.198Z,26.12
2018-06-20T19:12:03.214Z,26.06
2018-06-20T19:14:32.190Z,26.00
2018-06-20T19:17:01.204Z,25.88
2018-06-20T19:19:31.169Z,25.79
2018-06-20T19:22:00.297Z,25.69
2018-06-20T19:24:29.370Z,25.60
2018-06-20T19:26:58.404Z,25.46
2018-06-20T19:29:27.481Z,25.35
2018-06-20T19:31:56.545Z,25.19
2018-06-20T19:34:25.592Z,25.05
2018-06-20T19:36:54.580Z,24.91
2018-06-20T19:39:28.516Z,24.80
2018-06-20T19:41:57.509Z,24.70
2018-06-20T19:44:31.576Z,24.58
2018-06-20T19:47:02.120Z,24.50
2018-06-20T19:49:31.222Z,24.41
2018-06-20T19:52:00.228Z,24.31
2018-06-20T19:54:29.346Z,24.25
2018-06-20T19:56:58.324Z,24.19
2018-06-20T19:59:27.304Z,24.13
2018-06-20T20:01:56.335Z,24.08
2018-06-20T20:04:25.440Z,23.98
2018-06-20T20:06:54.768Z,23.96
2018-06-20T20:09:23.845Z,23.93
2018-06-20T20:11:52.886Z,23.88
2018-06-20T20:14:21.843Z,23.84
2018-06-20T20:16:50.860Z,23.81
2018-06-20T20:19:19.872Z,23.74
2018-06-20T20:21:48.975Z,23.70
2018-06-20T20:24:17.987Z,23.67
2018-06-20T20:26:46.971Z,23.65
2018-06-20T20:29:16.025Z,23.58
2018-06-20T20:31:45.052Z,23.51
2018-06-20T20:34:14.215Z,23.44
2018-06-20T20:36:43.132Z,23.35
2018-06-20T20:39:12.173Z,23.24
2018-06-20T20:41:41.213Z,23.18
2018-06-20T20:44:10.245Z,23.12
2018-06-20T20:46:39.629Z,23.06
2018-06-20T20:49:08.600Z,22.92
2018-06-20T20:51:37.767Z,22.84
2018-06-20T20:54:06.736Z,22.85
2018-06-20T20:56:35.806Z,22.81
2018-06-20T20:59:04.805Z,22.79
2018-06-20T21:01:33.756Z,22.77
2018-06-20T21:04:02.769Z,22.75
2018-06-20T21:06:31.736Z,22.71
2018-06-20T21:09:00.682Z,22.70
2018-06-20T21:11:32.544Z,22.63
2018-06-20T21:14:02.328Z,22.58
2018-06-20T21:16:31.408Z,22.46
2018-06-20T21:19:00.413Z,22.38
2018-06-20T21:21:29.876Z,22.35
2018-06-20T21:23:58.993Z,22.28
2018-06-20T21:26:28.050Z,22.23
2018-06-20T21:28:57.095Z,22.17
2018-06-20T21:31:26.111Z,22.09
2018-06-20T21:33:55.131Z,22.01
2018-06-20T21:36:24.095Z,21.93
2018-06-20T21:38:53.040Z,21.84
2018-06-20T21:41:22.050Z,21.78
2018-06-20T21:43:51.004Z,21.73
2018-06-20T21:46:20.041Z,21.70
2018-06-20T21:48:49.056Z,21.66
2018-06-20T21:51:18.017Z,21.61
2018-06-20T21:53:47.021Z,21.60
2018-06-20T21:56:15.986Z,21.60
2018-06-20T21:58:44.994Z,21.59
2018-06-20T22:01:14.074Z,21.57
2018-06-20T22:03:43.064Z,21.59
2018-06-20T22:06:12.074Z,21.58
2018-06-20T22:08:41.084Z,21.59
2018-06-20T22:11:10.032Z,21.58
2018-06-20T22:13:38.996Z,21.56
2018-06-20T22:16:08.000Z,21.57
2018-06-20T22:18:36.991Z,21.57
2018-06-20T22:21:05.968Z,21.56
2018-06-20T22:23:35.047Z,21.52
2018-06-20T22:26:04.065Z,21.51
2018-06-20T22:28:33.047Z,21.44
2018-06-20T22:31:02.025Z,21.38
2018-06-20T22:33:31.057Z,21.42
2018-06-20T22:36:00.057Z,21.45
2018-06-20T22:38:29.119Z,21.46
2018-06-20T22:40:58.117Z,21.42
2018-06-20T22:43:27.153Z,21.38
2018-06-20T22:45:56.179Z,21.37
2018-06-20T22:48:25.162Z,21.31
2018-06-20T22:50:54.156Z,21.25
2018-06-20T22:53:23.260Z,21.21
2018-06-20T22:55:52.325Z,21.17
2018-06-20T22:58:21.296Z,21.11
2018-06-20T23:00:50.284Z,21.07
2018-06-20T23:03:19.318Z,21.05
2018-06-20T23:05:48.253Z,21.06
2018-06-20T23:08:17.281Z,21.03
2018-06-20T23:10:46.298Z,21.01
2018-06-20T23:13:15.316Z,20.98
2018-06-20T23:15:44.244Z,20.96
2018-06-20T23:18:13.195Z,20.91
2018-06-20T23:20:42.194Z,20.91
2018-06-20T23:23:11.465Z,20.89
2018-06-20T23:25:40.411Z,20.91
2018-06-20T23:28:09.376Z,20.93
2018-06-20T23:30:38.537Z,20.88
2018-06-20T23:33:07.541Z,20.87
2018-06-20T23:35:36.610Z,20.84
2018-06-20T23:38:05.988Z,20.88
2018-06-20T23:40:34.968Z,20.91
2018-06-20T23:43:03.918Z,20.93
2018-06-20T23:45:32.921Z,20.96
2018-06-20T23:48:01.944Z,20.93
2018-06-20T23:50:30.944Z,20.95
2018-06-20T23:52:59.919Z,20.98
2018-06-20T23:55:28.910Z,20.98
2018-06-20T23:57:57.973Z,21.01
